Mars Hill, Louisiana
Current Conditions -  °F | °C
As of 9:55 PM on Thursday 18 Dec 2014 (Local Time) from KIER Reporting Station
Overcast Overcast  
Wind Chill: 51°   Ceiling: 600
Heat Index: 51°   Visibility: 7mi
Dew Point: 50°   Wind: 5mph
Humidity: 95%   Direction: 40°NE
Pressure: 30.16"   Gusts: NA
Location:  31.8476°N, 92.7651°W
Report Text: KIER 190355Z AUTO 04004KT 7SM OVC006 11/10 A3016 RMK AO2 T01050098
Loading
Personal Weather Stations






























Interactive Weather Map New forecast layout! Learn more

10-Day Weather Forecast

Advertisements
Track Severe Weather on mobile